sensor_id;sensor_type;location;lat;lon;timestamp;P1;P2;P0
63305;PMS5003;50735;52.060;1.248;2024-02-21T00:00:33;6;6;
63305;PMS5003;50735;52.060;1.248;2024-02-21T00:03:05;12;6;
63305;PMS5003;50735;52.060;1.248;2024-02-21T00:05:37;10;7;
63305;PMS5003;50735;52.060;1.248;2024-02-21T00:08:09;11;6;
63305;PMS5003;50735;52.060;1.248;2024-02-21T00:10:40;6;5;
63305;PMS5003;50735;52.060;1.248;2024-02-21T00:13:12;11;8;
63305;PMS5003;50735;52.060;1.248;2024-02-21T00:15:44;9;4;
63305;PMS5003;50735;52.060;1.248;2024-02-21T00:18:16;10;6;
63305;PMS5003;50735;52.060;1.248;2024-02-21T00:20:48;4;4;
63305;PMS5003;50735;52.060;1.248;2024-02-21T00:23:19;13;7;
63305;PMS5003;50735;52.060;1.248;2024-02-21T00:25:51;6;6;
63305;PMS5003;50735;52.060;1.248;2024-02-21T00:28:23;5;5;
63305;PMS5003;50735;52.060;1.248;2024-02-21T00:30:55;7;6;
63305;PMS5003;50735;52.060;1.248;2024-02-21T00:33:27;11;4;
63305;PMS5003;50735;52.060;1.248;2024-02-21T00:35:58;10;6;
63305;PMS5003;50735;52.060;1.248;2024-02-21T00:38:30;4;4;
63305;PMS5003;50735;52.060;1.248;2024-02-21T00:41:02;8;4;
63305;PMS5003;50735;52.060;1.248;2024-02-21T00:43:35;6;4;
63305;PMS5003;50735;52.060;1.248;2024-02-21T00:46:07;5;4;
63305;PMS5003;50735;52.060;1.248;2024-02-21T00:48:39;7;5;
63305;PMS5003;50735;52.060;1.248;2024-02-21T00:51:11;6;4;
63305;PMS5003;50735;52.060;1.248;2024-02-21T00:53:43;7;5;
63305;PMS5003;50735;52.060;1.248;2024-02-21T00:56:14;12;4;
63305;PMS5003;50735;52.060;1.248;2024-02-21T00:58:48;8;7;
63305;PMS5003;50735;52.060;1.248;2024-02-21T01:01:21;11;6;
63305;PMS5003;50735;52.060;1.248;2024-02-21T01:03:53;7;5;
63305;PMS5003;50735;52.060;1.248;2024-02-21T01:06:25;6;6;
63305;PMS5003;50735;52.060;1.248;2024-02-21T01:08:57;10;3;
63305;PMS5003;50735;52.060;1.248;2024-02-21T01:11:29;10;6;
63305;PMS5003;50735;52.060;1.248;2024-02-21T01:14:01;8;7;
63305;PMS5003;50735;52.060;1.248;2024-02-21T01:16:32;7;6;
63305;PMS5003;50735;52.060;1.248;2024-02-21T01:19:04;7;6;
63305;PMS5003;50735;52.060;1.248;2024-02-21T01:21:36;11;6;
63305;PMS5003;50735;52.060;1.248;2024-02-21T01:24:08;6;6;
63305;PMS5003;50735;52.060;1.248;2024-02-21T01:26:40;7;6;
63305;PMS5003;50735;52.060;1.248;2024-02-21T01:29:12;7;6;
63305;PMS5003;50735;52.060;1.248;2024-02-21T01:31:45;11;6;
63305;PMS5003;50735;52.060;1.248;2024-02-21T01:34:17;8;6;
63305;PMS5003;50735;52.060;1.248;2024-02-21T01:36:48;6;5;
63305;PMS5003;50735;52.060;1.248;2024-02-21T01:39:20;16;7;
63305;PMS5003;50735;52.060;1.248;2024-02-21T01:41:51;10;6;
63305;PMS5003;50735;52.060;1.248;2024-02-21T01:44:23;7;4;
63305;PMS5003;50735;52.060;1.248;2024-02-21T01:46:55;11;6;
63305;PMS5003;50735;52.060;1.248;2024-02-21T01:49:27;5;4;
63305;PMS5003;50735;52.060;1.248;2024-02-21T01:51:59;9;6;
63305;PMS5003;50735;52.060;1.248;2024-02-21T01:54:31;12;6;
63305;PMS5003;50735;52.060;1.248;2024-02-21T01:57:03;18;8;
63305;PMS5003;50735;52.060;1.248;2024-02-21T01:59:36;5;5;
63305;PMS5003;50735;52.060;1.248;2024-02-21T02:02:07;9;6;
63305;PMS5003;50735;52.060;1.248;2024-02-21T02:04:39;12;6;
63305;PMS5003;50735;52.060;1.248;2024-02-21T02:07:11;5;5;
63305;PMS5003;50735;52.060;1.248;2024-02-21T02:09:43;11;6;
63305;PMS5003;50735;52.060;1.248;2024-02-21T02:12:15;8;6;
63305;PMS5003;50735;52.060;1.248;2024-02-21T02:14:56;5;5;
63305;PMS5003;50735;52.060;1.248;2024-02-21T02:17:29;4;4;
63305;PMS5003;50735;52.060;1.248;2024-02-21T02:20:02;6;5;
63305;PMS5003;50735;52.060;1.248;2024-02-21T02:22:34;6;4;
63305;PMS5003;50735;52.060;1.248;2024-02-21T02:25:10;6;5;
63305;PMS5003;50735;52.060;1.248;2024-02-21T02:27:42;11;6;
63305;PMS5003;50735;52.060;1.248;2024-02-21T02:30:15;10;5;
63305;PMS5003;50735;52.060;1.248;2024-02-21T02:32:48;12;6;
63305;PMS5003;50735;52.060;1.248;2024-02-21T02:35:19;11;7;
63305;PMS5003;50735;52.060;1.248;2024-02-21T02:37:51;8;6;
63305;PMS5003;50735;52.060;1.248;2024-02-21T02:40:23;17;6;
63305;PMS5003;50735;52.060;1.248;2024-02-21T02:42:55;9;7;
63305;PMS5003;50735;52.060;1.248;2024-02-21T02:45:26;11;8;
63305;PMS5003;50735;52.060;1.248;2024-02-21T02:47:59;6;6;
63305;PMS5003;50735;52.060;1.248;2024-02-21T02:50:31;20;7;
63305;PMS5003;50735;52.060;1.248;2024-02-21T02:53:03;8;6;
63305;PMS5003;50735;52.060;1.248;2024-02-21T02:55:34;11;6;
63305;PMS5003;50735;52.060;1.248;2024-02-21T02:58:06;11;6;
63305;PMS5003;50735;52.060;1.248;2024-02-21T03:00:39;9;7;
63305;PMS5003;50735;52.060;1.248;2024-02-21T03:03:11;7;5;
63305;PMS5003;50735;52.060;1.248;2024-02-21T03:05:42;9;7;
63305;PMS5003;50735;52.060;1.248;2024-02-21T03:08:14;10;7;
63305;PMS5003;50735;52.060;1.248;2024-02-21T03:10:46;8;5;
63305;PMS5003;50735;52.060;1.248;2024-02-21T03:13:18;18;9;
63305;PMS5003;50735;52.060;1.248;2024-02-21T03:15:50;8;6;
63305;PMS5003;50735;52.060;1.248;2024-02-21T03:18:22;9;7;
63305;PMS5003;50735;52.060;1.248;2024-02-21T03:20:53;8;6;
63305;PMS5003;50735;52.060;1.248;2024-02-21T03:23:25;9;7;
63305;PMS5003;50735;52.060;1.248;2024-02-21T03:25:57;5;5;
63305;PMS5003;50735;52.060;1.248;2024-02-21T03:28:29;8;6;
63305;PMS5003;50735;52.060;1.248;2024-02-21T03:31:00;9;6;
63305;PMS5003;50735;52.060;1.248;2024-02-21T03:33:32;9;7;
63305;PMS5003;50735;52.060;1.248;2024-02-21T03:36:04;7;5;
63305;PMS5003;50735;52.060;1.248;2024-02-21T03:38:36;6;5;
63305;PMS5003;50735;52.060;1.248;2024-02-21T03:41:08;9;7;
63305;PMS5003;50735;52.060;1.248;2024-02-21T03:43:40;13;7;
63305;PMS5003;50735;52.060;1.248;2024-02-21T03:46:12;4;4;
63305;PMS5003;50735;52.060;1.248;2024-02-21T03:48:44;8;6;
63305;PMS5003;50735;52.060;1.248;2024-02-21T03:51:17;12;7;
63305;PMS5003;50735;52.060;1.248;2024-02-21T03:53:49;8;7;
63305;PMS5003;50735;52.060;1.248;2024-02-21T03:56:20;15;8;
63305;PMS5003;50735;52.060;1.248;2024-02-21T03:58:52;23;6;
63305;PMS5003;50735;52.060;1.248;2024-02-21T04:01:24;11;8;
63305;PMS5003;50735;52.060;1.248;2024-02-21T04:03:56;6;5;
63305;PMS5003;50735;52.060;1.248;2024-02-21T04:06:28;10;5;
63305;PMS5003;50735;52.060;1.248;2024-02-21T04:08:59;11;5;
63305;PMS5003;50735;52.060;1.248;2024-02-21T04:11:31;10;5;
63305;PMS5003;50735;52.060;1.248;2024-02-21T04:14:03;6;5;
63305;PMS5003;50735;52.060;1.248;2024-02-21T04:16:35;14;6;
63305;PMS5003;50735;52.060;1.248;2024-02-21T04:19:07;8;7;
63305;PMS5003;50735;52.060;1.248;2024-02-21T04:21:39;8;5;
63305;PMS5003;50735;52.060;1.248;2024-02-21T04:24:10;9;6;
63305;PMS5003;50735;52.060;1.248;2024-02-21T04:26:42;4;4;
63305;PMS5003;50735;52.060;1.248;2024-02-21T04:29:14;13;5;
63305;PMS5003;50735;52.060;1.248;2024-02-21T04:31:46;4;4;
63305;PMS5003;50735;52.060;1.248;2024-02-21T04:34:17;8;6;
63305;PMS5003;50735;52.060;1.248;2024-02-21T04:36:49;8;5;
63305;PMS5003;50735;52.060;1.248;2024-02-21T04:39:21;4;4;
63305;PMS5003;50735;52.060;1.248;2024-02-21T04:41:53;7;5;
63305;PMS5003;50735;52.060;1.248;2024-02-21T04:44:25;7;6;
63305;PMS5003;50735;52.060;1.248;2024-02-21T04:46:56;7;5;
63305;PMS5003;50735;52.060;1.248;2024-02-21T04:49:28;7;5;
63305;PMS5003;50735;52.060;1.248;2024-02-21T04:52:00;6;5;
63305;PMS5003;50735;52.060;1.248;2024-02-21T04:54:32;10;7;
63305;PMS5003;50735;52.060;1.248;2024-02-21T04:57:04;8;7;
63305;PMS5003;50735;52.060;1.248;2024-02-21T04:59:36;6;6;
63305;PMS5003;50735;52.060;1.248;2024-02-21T05:02:07;7;5;
63305;PMS5003;50735;52.060;1.248;2024-02-21T05:04:39;17;5;
63305;PMS5003;50735;52.060;1.248;2024-02-21T05:07:11;8;6;
63305;PMS5003;50735;52.060;1.248;2024-02-21T05:09:43;10;7;
63305;PMS5003;50735;52.060;1.248;2024-02-21T05:12:15;9;6;
63305;PMS5003;50735;52.060;1.248;2024-02-21T05:14:47;7;7;
63305;PMS5003;50735;52.060;1.248;2024-02-21T05:17:19;10;7;
63305;PMS5003;50735;52.060;1.248;2024-02-21T05:19:50;7;6;
63305;PMS5003;50735;52.060;1.248;2024-02-21T05:22:22;11;7;
63305;PMS5003;50735;52.060;1.248;2024-02-21T05:24:54;10;8;
63305;PMS5003;50735;52.060;1.248;2024-02-21T05:27:26;9;5;
63305;PMS5003;50735;52.060;1.248;2024-02-21T05:29:58;8;7;
63305;PMS5003;50735;52.060;1.248;2024-02-21T05:32:29;5;5;
63305;PMS5003;50735;52.060;1.248;2024-02-21T05:35:01;13;8;
63305;PMS5003;50735;52.060;1.248;2024-02-21T05:37:34;8;5;
63305;PMS5003;50735;52.060;1.248;2024-02-21T05:40:06;7;6;
63305;PMS5003;50735;52.060;1.248;2024-02-21T05:42:38;13;7;
63305;PMS5003;50735;52.060;1.248;2024-02-21T05:45:10;9;5;
63305;PMS5003;50735;52.060;1.248;2024-02-21T05:47:42;6;5;
63305;PMS5003;50735;52.060;1.248;2024-02-21T05:50:14;10;7;
63305;PMS5003;50735;52.060;1.248;2024-02-21T05:52:46;7;6;
63305;PMS5003;50735;52.060;1.248;2024-02-21T05:55:18;9;6;
63305;PMS5003;50735;52.060;1.248;2024-02-21T05:57:53;6;5;
63305;PMS5003;50735;52.060;1.248;2024-02-21T06:00:25;8;6;
63305;PMS5003;50735;52.060;1.248;2024-02-21T06:02:57;9;7;
63305;PMS5003;50735;52.060;1.248;2024-02-21T06:05:29;6;6;
63305;PMS5003;50735;52.060;1.248;2024-02-21T06:08:00;5;5;
63305;PMS5003;50735;52.060;1.248;2024-02-21T06:10:32;10;5;
63305;PMS5003;50735;52.060;1.248;2024-02-21T06:13:04;20;7;
63305;PMS5003;50735;52.060;1.248;2024-02-21T06:15:37;9;6;
63305;PMS5003;50735;52.060;1.248;2024-02-21T06:18:08;10;6;
63305;PMS5003;50735;52.060;1.248;2024-02-21T06:20:40;8;5;
63305;PMS5003;50735;52.060;1.248;2024-02-21T06:23:12;14;5;
63305;PMS5003;50735;52.060;1.248;2024-02-21T06:25:44;5;5;
63305;PMS5003;50735;52.060;1.248;2024-02-21T06:28:15;10;6;
63305;PMS5003;50735;52.060;1.248;2024-02-21T06:30:48;9;5;
63305;PMS5003;50735;52.060;1.248;2024-02-21T06:33:19;6;4;
63305;PMS5003;50735;52.060;1.248;2024-02-21T06:35:51;6;5;
63305;PMS5003;50735;52.060;1.248;2024-02-21T06:38:23;10;5;
63305;PMS5003;50735;52.060;1.248;2024-02-21T06:40:55;4;4;
63305;PMS5003;50735;52.060;1.248;2024-02-21T06:43:27;8;6;
63305;PMS5003;50735;52.060;1.248;2024-02-21T06:45:59;9;5;
63305;PMS5003;50735;52.060;1.248;2024-02-21T06:48:30;16;4;
63305;PMS5003;50735;52.060;1.248;2024-02-21T06:51:02;8;5;
63305;PMS5003;50735;52.060;1.248;2024-02-21T06:53:35;7;6;
63305;PMS5003;50735;52.060;1.248;2024-02-21T06:56:07;9;4;
63305;PMS5003;50735;52.060;1.248;2024-02-21T06:58:39;5;4;
63305;PMS5003;50735;52.060;1.248;2024-02-21T07:01:11;9;4;
63305;PMS5003;50735;52.060;1.248;2024-02-21T07:03:43;10;5;
63305;PMS5003;50735;52.060;1.248;2024-02-21T07:06:14;6;6;
63305;PMS5003;50735;52.060;1.248;2024-02-21T07:08:46;6;4;
63305;PMS5003;50735;52.060;1.248;2024-02-21T07:11:18;6;4;
63305;PMS5003;50735;52.060;1.248;2024-02-21T07:13:50;7;6;
63305;PMS5003;50735;52.060;1.248;2024-02-21T07:16:23;7;5;
63305;PMS5003;50735;52.060;1.248;2024-02-21T07:18:55;6;4;
63305;PMS5003;50735;52.060;1.248;2024-02-21T07:21:27;7;6;
63305;PMS5003;50735;52.060;1.248;2024-02-21T07:23:59;8;5;
63305;PMS5003;50735;52.060;1.248;2024-02-21T07:26:31;7;7;
63305;PMS5003;50735;52.060;1.248;2024-02-21T07:29:03;8;7;
63305;PMS5003;50735;52.060;1.248;2024-02-21T07:31:38;6;5;
63305;PMS5003;50735;52.060;1.248;2024-02-21T07:34:12;16;5;
63305;PMS5003;50735;52.060;1.248;2024-02-21T07:36:43;9;6;
63305;PMS5003;50735;52.060;1.248;2024-02-21T07:39:15;6;6;
63305;PMS5003;50735;52.060;1.248;2024-02-21T07:41:47;10;7;
63305;PMS5003;50735;52.060;1.248;2024-02-21T07:44:19;7;7;
63305;PMS5003;50735;52.060;1.248;2024-02-21T07:46:51;6;6;
63305;PMS5003;50735;52.060;1.248;2024-02-21T07:49:22;14;9;
63305;PMS5003;50735;52.060;1.248;2024-02-21T07:51:54;9;6;
63305;PMS5003;50735;52.060;1.248;2024-02-21T07:54:26;8;5;
63305;PMS5003;50735;52.060;1.248;2024-02-21T07:56:58;9;7;
63305;PMS5003;50735;52.060;1.248;2024-02-21T07:59:29;14;8;
63305;PMS5003;50735;52.060;1.248;2024-02-21T08:02:01;10;7;
63305;PMS5003;50735;52.060;1.248;2024-02-21T08:04:33;8;6;
63305;PMS5003;50735;52.060;1.248;2024-02-21T08:07:05;13;8;
63305;PMS5003;50735;52.060;1.248;2024-02-21T08:09:39;11;9;
63305;PMS5003;50735;52.060;1.248;2024-02-21T08:12:11;9;8;
63305;PMS5003;50735;52.060;1.248;2024-02-21T08:14:43;9;9;
63305;PMS5003;50735;52.060;1.248;2024-02-21T08:17:15;8;7;
63305;PMS5003;50735;52.060;1.248;2024-02-21T08:19:46;7;7;
63305;PMS5003;50735;52.060;1.248;2024-02-21T08:22:18;9;6;
63305;PMS5003;50735;52.060;1.248;2024-02-21T08:24:50;5;5;
63305;PMS5003;50735;52.060;1.248;2024-02-21T08:27:22;9;7;
63305;PMS5003;50735;52.060;1.248;2024-02-21T08:29:54;8;7;
63305;PMS5003;50735;52.060;1.248;2024-02-21T08:32:25;10;7;
63305;PMS5003;50735;52.060;1.248;2024-02-21T08:34:57;8;7;
63305;PMS5003;50735;52.060;1.248;2024-02-21T08:37:29;8;5;
63305;PMS5003;50735;52.060;1.248;2024-02-21T08:40:01;5;5;
63305;PMS5003;50735;52.060;1.248;2024-02-21T08:42:33;8;5;
63305;PMS5003;50735;52.060;1.248;2024-02-21T08:45:05;6;6;
63305;PMS5003;50735;52.060;1.248;2024-02-21T08:47:39;6;6;
63305;PMS5003;50735;52.060;1.248;2024-02-21T08:50:11;6;5;
63305;PMS5003;50735;52.060;1.248;2024-02-21T08:52:43;6;6;
63305;PMS5003;50735;52.060;1.248;2024-02-21T08:55:15;6;5;
63305;PMS5003;50735;52.060;1.248;2024-02-21T08:57:47;6;6;
63305;PMS5003;50735;52.060;1.248;2024-02-21T09:00:19;6;6;
63305;PMS5003;50735;52.060;1.248;2024-02-21T09:02:51;10;7;
63305;PMS5003;50735;52.060;1.248;2024-02-21T09:05:24;6;5;
63305;PMS5003;50735;52.060;1.248;2024-02-21T09:07:56;8;6;
63305;PMS5003;50735;52.060;1.248;2024-02-21T09:10:27;7;4;
63305;PMS5003;50735;52.060;1.248;2024-02-21T09:13:00;10;7;
63305;PMS5003;50735;52.060;1.248;2024-02-21T09:15:31;9;6;
63305;PMS5003;50735;52.060;1.248;2024-02-21T09:18:03;6;5;
63305;PMS5003;50735;52.060;1.248;2024-02-21T09:20:35;6;5;
63305;PMS5003;50735;52.060;1.248;2024-02-21T09:23:07;10;5;
63305;PMS5003;50735;52.060;1.248;2024-02-21T09:25:39;5;5;
63305;PMS5003;50735;52.060;1.248;2024-02-21T09:28:10;11;7;
63305;PMS5003;50735;52.060;1.248;2024-02-21T09:30:42;9;9;
63305;PMS5003;50735;52.060;1.248;2024-02-21T09:33:14;10;5;
63305;PMS5003;50735;52.060;1.248;2024-02-21T09:35:45;10;9;
63305;PMS5003;50735;52.060;1.248;2024-02-21T09:38:17;10;5;
63305;PMS5003;50735;52.060;1.248;2024-02-21T09:40:51;6;5;
63305;PMS5003;50735;52.060;1.248;2024-02-21T09:43:30;7;6;
63305;PMS5003;50735;52.060;1.248;2024-02-21T09:46:04;8;6;
63305;PMS5003;50735;52.060;1.248;2024-02-21T09:48:41;5;3;
63305;PMS5003;50735;52.060;1.248;2024-02-21T09:51:27;12;6;
63305;PMS5003;50735;52.060;1.248;2024-02-21T09:54:02;5;4;
63305;PMS5003;50735;52.060;1.248;2024-02-21T09:56:34;8;6;
63305;PMS5003;50735;52.060;1.248;2024-02-21T09:59:07;7;7;
63305;PMS5003;50735;52.060;1.248;2024-02-21T10:01:38;11;5;
63305;PMS5003;50735;52.060;1.248;2024-02-21T10:04:10;6;5;
63305;PMS5003;50735;52.060;1.248;2024-02-21T10:06:42;9;6;
63305;PMS5003;50735;52.060;1.248;2024-02-21T10:09:22;3;3;
63305;PMS5003;50735;52.060;1.248;2024-02-21T10:11:55;4;4;
63305;PMS5003;50735;52.060;1.248;2024-02-21T10:14:38;8;5;
63305;PMS5003;50735;52.060;1.248;2024-02-21T10:17:15;3;3;
63305;PMS5003;50735;52.060;1.248;2024-02-21T10:19:48;8;5;
63305;PMS5003;50735;52.060;1.248;2024-02-21T10:22:20;8;8;
63305;PMS5003;50735;52.060;1.248;2024-02-21T10:24:52;13;6;
63305;PMS5003;50735;52.060;1.248;2024-02-21T10:27:23;9;6;
63305;PMS5003;50735;52.060;1.248;2024-02-21T10:29:55;3;3;
63305;PMS5003;50735;52.060;1.248;2024-02-21T10:32:27;4;4;
63305;PMS5003;50735;52.060;1.248;2024-02-21T10:35:00;4;4;
63305;PMS5003;50735;52.060;1.248;2024-02-21T10:37:33;5;5;
63305;PMS5003;50735;52.060;1.248;2024-02-21T10:40:05;4;4;
63305;PMS5003;50735;52.060;1.248;2024-02-21T10:42:38;7;4;
63305;PMS5003;50735;52.060;1.248;2024-02-21T10:45:11;4;4;
63305;PMS5003;50735;52.060;1.248;2024-02-21T10:47:44;5;3;
63305;PMS5003;50735;52.060;1.248;2024-02-21T10:50:24;6;4;
63305;PMS5003;50735;52.060;1.248;2024-02-21T10:53:01;6;3;
63305;PMS5003;50735;52.060;1.248;2024-02-21T10:55:41;6;4;
63305;PMS5003;50735;52.060;1.248;2024-02-21T10:58:21;9;6;
63305;PMS5003;50735;52.060;1.248;2024-02-21T11:00:53;8;3;
63305;PMS5003;50735;52.060;1.248;2024-02-21T11:03:25;5;4;
63305;PMS5003;50735;52.060;1.248;2024-02-21T11:05:57;5;4;
63305;PMS5003;50735;52.060;1.248;2024-02-21T11:08:30;8;5;
63305;PMS5003;50735;52.060;1.248;2024-02-21T11:11:03;5;5;
63305;PMS5003;50735;52.060;1.248;2024-02-21T11:13:36;3;3;
63305;PMS5003;50735;52.060;1.248;2024-02-21T11:16:09;7;4;
63305;PMS5003;50735;52.060;1.248;2024-02-21T11:18:43;3;3;
63305;PMS5003;50735;52.060;1.248;2024-02-21T11:21:14;6;4;
63305;PMS5003;50735;52.060;1.248;2024-02-21T11:23:54;5;5;
63305;PMS5003;50735;52.060;1.248;2024-02-21T11:26:27;5;3;
63305;PMS5003;50735;52.060;1.248;2024-02-21T11:29:01;6;4;
63305;PMS5003;50735;52.060;1.248;2024-02-21T11:31:41;3;3;
63305;PMS5003;50735;52.060;1.248;2024-02-21T11:34:17;6;3;
63305;PMS5003;50735;52.060;1.248;2024-02-21T11:36:50;6;5;
63305;PMS5003;50735;52.060;1.248;2024-02-21T11:39:23;5;4;
63305;PMS5003;50735;52.060;1.248;2024-02-21T11:42:00;7;7;
63305;PMS5003;50735;52.060;1.248;2024-02-21T11:44:33;10;4;
63305;PMS5003;50735;52.060;1.248;2024-02-21T11:47:06;7;4;
63305;PMS5003;50735;52.060;1.248;2024-02-21T11:49:43;6;3;
63305;PMS5003;50735;52.060;1.248;2024-02-21T11:52:16;5;4;
63305;PMS5003;50735;52.060;1.248;2024-02-21T11:54:48;4;4;
63305;PMS5003;50735;52.060;1.248;2024-02-21T11:57:20;7;7;
63305;PMS5003;50735;52.060;1.248;2024-02-21T11:59:53;6;5;
63305;PMS5003;50735;52.060;1.248;2024-02-21T12:02:25;5;5;
63305;PMS5003;50735;52.060;1.248;2024-02-21T12:04:57;3;3;
63305;PMS5003;50735;52.060;1.248;2024-02-21T12:07:30;5;5;
63305;PMS5003;50735;52.060;1.248;2024-02-21T12:10:02;9;3;
63305;PMS5003;50735;52.060;1.248;2024-02-21T12:12:33;5;3;
63305;PMS5003;50735;52.060;1.248;2024-02-21T12:15:06;7;4;
63305;PMS5003;50735;52.060;1.248;2024-02-21T12:17:39;7;4;
63305;PMS5003;50735;52.060;1.248;2024-02-21T12:20:12;7;4;
63305;PMS5003;50735;52.060;1.248;2024-02-21T12:22:44;5;5;
63305;PMS5003;50735;52.060;1.248;2024-02-21T12:25:16;2;2;
63305;PMS5003;50735;52.060;1.248;2024-02-21T12:27:49;4;3;
63305;PMS5003;50735;52.060;1.248;2024-02-21T12:30:20;5;2;
63305;PMS5003;50735;52.060;1.248;2024-02-21T12:32:52;3;2;
63305;PMS5003;50735;52.060;1.248;2024-02-21T12:35:24;3;1;
63305;PMS5003;50735;52.060;1.248;2024-02-21T12:37:56;5;3;
63305;PMS5003;50735;52.060;1.248;2024-02-21T12:40:28;6;3;
63305;PMS5003;50735;52.060;1.248;2024-02-21T12:42:59;3;3;
63305;PMS5003;50735;52.060;1.248;2024-02-21T12:45:31;1;1;
63305;PMS5003;50735;52.060;1.248;2024-02-21T12:48:03;3;2;
63305;PMS5003;50735;52.060;1.248;2024-02-21T12:50:36;2;2;
63305;PMS5003;50735;52.060;1.248;2024-02-21T12:53:07;2;2;
63305;PMS5003;50735;52.060;1.248;2024-02-21T12:55:39;3;2;
63305;PMS5003;50735;52.060;1.248;2024-02-21T12:58:10;2;2;
63305;PMS5003;50735;52.060;1.248;2024-02-21T13:00:42;1;1;
63305;PMS5003;50735;52.060;1.248;2024-02-21T13:03:14;4;2;
63305;PMS5003;50735;52.060;1.248;2024-02-21T13:05:46;3;1;
63305;PMS5003;50735;52.060;1.248;2024-02-21T13:08:18;5;2;
63305;PMS5003;50735;52.060;1.248;2024-02-21T13:10:50;4;1;
63305;PMS5003;50735;52.060;1.248;2024-02-21T13:13:21;1;1;
63305;PMS5003;50735;52.060;1.248;2024-02-21T13:15:53;3;1;
63305;PMS5003;50735;52.060;1.248;2024-02-21T13:18:25;2;1;
63305;PMS5003;50735;52.060;1.248;2024-02-21T13:20:57;2;0;
63305;PMS5003;50735;52.060;1.248;2024-02-21T13:23:29;3;1;
63305;PMS5003;50735;52.060;1.248;2024-02-21T13:26:01;3;1;
63305;PMS5003;50735;52.060;1.248;2024-02-21T13:28:32;2;1;
63305;PMS5003;50735;52.060;1.248;2024-02-21T13:31:04;1;1;
63305;PMS5003;50735;52.060;1.248;2024-02-21T13:33:36;3;1;
63305;PMS5003;50735;52.060;1.248;2024-02-21T13:36:08;1;1;
63305;PMS5003;50735;52.060;1.248;2024-02-21T13:38:40;5;1;
63305;PMS5003;50735;52.060;1.248;2024-02-21T13:41:12;1;1;
63305;PMS5003;50735;52.060;1.248;2024-02-21T13:43:43;4;1;
63305;PMS5003;50735;52.060;1.248;2024-02-21T13:46:15;3;1;
63305;PMS5003;50735;52.060;1.248;2024-02-21T13:48:47;2;2;
63305;PMS5003;50735;52.060;1.248;2024-02-21T13:51:19;2;2;
63305;PMS5003;50735;52.060;1.248;2024-02-21T13:53:51;4;2;
63305;PMS5003;50735;52.060;1.248;2024-02-21T13:56:23;2;2;
63305;PMS5003;50735;52.060;1.248;2024-02-21T13:58:55;3;1;
63305;PMS5003;50735;52.060;1.248;2024-02-21T14:01:26;1;1;
63305;PMS5003;50735;52.060;1.248;2024-02-21T14:03:58;3;1;
63305;PMS5003;50735;52.060;1.248;2024-02-21T14:06:30;1;1;
63305;PMS5003;50735;52.060;1.248;2024-02-21T14:09:02;2;2;
63305;PMS5003;50735;52.060;1.248;2024-02-21T14:11:34;4;1;
63305;PMS5003;50735;52.060;1.248;2024-02-21T14:14:06;2;1;
63305;PMS5003;50735;52.060;1.248;2024-02-21T14:16:37;3;2;
63305;PMS5003;50735;52.060;1.248;2024-02-21T14:19:09;4;2;
63305;PMS5003;50735;52.060;1.248;2024-02-21T14:21:40;2;2;
63305;PMS5003;50735;52.060;1.248;2024-02-21T14:24:12;1;1;
63305;PMS5003;50735;52.060;1.248;2024-02-21T14:26:44;3;1;
63305;PMS5003;50735;52.060;1.248;2024-02-21T14:29:16;4;2;
63305;PMS5003;50735;52.060;1.248;2024-02-21T14:31:48;1;1;
63305;PMS5003;50735;52.060;1.248;2024-02-21T14:34:20;1;1;
63305;PMS5003;50735;52.060;1.248;2024-02-21T14:36:52;2;1;
63305;PMS5003;50735;52.060;1.248;2024-02-21T14:39:23;3;2;
63305;PMS5003;50735;52.060;1.248;2024-02-21T14:41:55;1;1;
63305;PMS5003;50735;52.060;1.248;2024-02-21T14:44:27;1;1;
63305;PMS5003;50735;52.060;1.248;2024-02-21T14:46:59;3;3;
63305;PMS5003;50735;52.060;1.248;2024-02-21T14:49:31;2;2;
63305;PMS5003;50735;52.060;1.248;2024-02-21T14:52:03;2;2;
63305;PMS5003;50735;52.060;1.248;2024-02-21T14:54:35;1;1;
63305;PMS5003;50735;52.060;1.248;2024-02-21T14:57:09;2;2;
63305;PMS5003;50735;52.060;1.248;2024-02-21T14:59:41;8;3;
63305;PMS5003;50735;52.060;1.248;2024-02-21T15:02:13;3;3;
63305;PMS5003;50735;52.060;1.248;2024-02-21T15:04:44;1;1;
63305;PMS5003;50735;52.060;1.248;2024-02-21T15:07:16;1;1;
63305;PMS5003;50735;52.060;1.248;2024-02-21T15:09:48;2;1;
63305;PMS5003;50735;52.060;1.248;2024-02-21T15:12:20;2;2;
63305;PMS5003;50735;52.060;1.248;2024-02-21T15:14:52;1;1;
63305;PMS5003;50735;52.060;1.248;2024-02-21T15:17:24;1;1;
63305;PMS5003;50735;52.060;1.248;2024-02-21T15:19:56;5;2;
63305;PMS5003;50735;52.060;1.248;2024-02-21T15:22:27;3;3;
63305;PMS5003;50735;52.060;1.248;2024-02-21T15:24:59;1;1;
63305;PMS5003;50735;52.060;1.248;2024-02-21T15:27:31;2;1;
63305;PMS5003;50735;52.060;1.248;2024-02-21T15:30:03;2;0;
63305;PMS5003;50735;52.060;1.248;2024-02-21T15:32:37;2;2;
63305;PMS5003;50735;52.060;1.248;2024-02-21T15:35:09;1;1;
63305;PMS5003;50735;52.060;1.248;2024-02-21T15:37:42;0;0;
63305;PMS5003;50735;52.060;1.248;2024-02-21T15:40:13;1;1;
63305;PMS5003;50735;52.060;1.248;2024-02-21T15:42:45;1;1;
63305;PMS5003;50735;52.060;1.248;2024-02-21T15:45:17;3;1;
63305;PMS5003;50735;52.060;1.248;2024-02-21T15:47:49;0;0;
63305;PMS5003;50735;52.060;1.248;2024-02-21T15:50:21;2;0;
63305;PMS5003;50735;52.060;1.248;2024-02-21T15:52:53;4;2;
63305;PMS5003;50735;52.060;1.248;2024-02-21T15:55:24;0;0;
63305;PMS5003;50735;52.060;1.248;2024-02-21T15:57:56;3;2;
63305;PMS5003;50735;52.060;1.248;2024-02-21T16:00:28;1;1;
63305;PMS5003;50735;52.060;1.248;2024-02-21T16:03:00;2;0;
63305;PMS5003;50735;52.060;1.248;2024-02-21T16:05:32;1;1;
63305;PMS5003;50735;52.060;1.248;2024-02-21T16:08:04;1;1;
63305;PMS5003;50735;52.060;1.248;2024-02-21T16:10:35;1;1;
63305;PMS5003;50735;52.060;1.248;2024-02-21T16:13:07;0;0;
63305;PMS5003;50735;52.060;1.248;2024-02-21T16:15:39;2;0;
63305;PMS5003;50735;52.060;1.248;2024-02-21T16:18:11;1;1;
63305;PMS5003;50735;52.060;1.248;2024-02-21T16:20:43;1;1;
63305;PMS5003;50735;52.060;1.248;2024-02-21T16:23:15;0;0;
63305;PMS5003;50735;52.060;1.248;2024-02-21T16:25:47;1;1;
63305;PMS5003;50735;52.060;1.248;2024-02-21T16:28:19;1;1;
63305;PMS5003;50735;52.060;1.248;2024-02-21T16:30:51;1;1;
63305;PMS5003;50735;52.060;1.248;2024-02-21T16:33:23;1;1;
63305;PMS5003;50735;52.060;1.248;2024-02-21T16:35:55;2;2;
63305;PMS5003;50735;52.060;1.248;2024-02-21T16:38:26;4;2;
63305;PMS5003;50735;52.060;1.248;2024-02-21T16:40:58;2;2;
63305;PMS5003;50735;52.060;1.248;2024-02-21T16:43:30;3;1;
63305;PMS5003;50735;52.060;1.248;2024-02-21T16:46:02;5;2;
63305;PMS5003;50735;52.060;1.248;2024-02-21T16:48:34;1;1;
63305;PMS5003;50735;52.060;1.248;2024-02-21T16:51:06;2;2;
63305;PMS5003;50735;52.060;1.248;2024-02-21T16:53:37;2;2;
63305;PMS5003;50735;52.060;1.248;2024-02-21T16:56:10;2;2;
63305;PMS5003;50735;52.060;1.248;2024-02-21T16:58:42;3;1;
63305;PMS5003;50735;52.060;1.248;2024-02-21T17:01:14;2;2;
63305;PMS5003;50735;52.060;1.248;2024-02-21T17:03:45;3;3;
63305;PMS5003;50735;52.060;1.248;2024-02-21T17:06:17;2;2;
63305;PMS5003;50735;52.060;1.248;2024-02-21T17:08:49;3;3;
63305;PMS5003;50735;52.060;1.248;2024-02-21T17:11:21;2;2;
63305;PMS5003;50735;52.060;1.248;2024-02-21T17:13:53;3;3;
63305;PMS5003;50735;52.060;1.248;2024-02-21T17:16:25;4;2;
63305;PMS5003;50735;52.060;1.248;2024-02-21T17:18:56;3;3;
63305;PMS5003;50735;52.060;1.248;2024-02-21T17:21:28;4;2;